.
WxDataArchive / Data Records for 2009-04-28
2009-04-27 April 2009 2009-04-29

Data Records for Tuesday, 28 April 2009

Time	Temp	Chill	HIndex	Humid	Dewpt	 Wind 	HiWind	WindDir	Rain 	Barom 
-----	----	-----	------	-----	-----	------	------	-------	-----	----- 
00:00	66.0	66.0	66.0	80	59.6	0	1	225	0.00	30.142 
00:05	66.0	66.0	66.0	80	59.6	0	1	225	0.00	30.142 
00:10	66.1	66.1	66.1	80	59.7	0	1	225	0.00	30.142 
00:15	66.1	66.1	66.1	81	60.1	0	1	225	0.00	30.157 
00:20	66.0	66.0	66.0	82	60.3	0	1	225	0.00	30.157 
00:25	65.8	65.8	65.8	84	60.8	0	1	225	0.01	30.157 
00:30	65.5	65.5	65.5	85	60.9	0	2	225	0.00	30.145 
00:35	65.2	65.2	65.2	86	60.9	0	1	225	0.00	30.145 
00:40	64.8	64.8	64.8	87	60.8	0	0	---	0.00	30.145 
00:45	64.7	64.7	64.7	88	61.1	0	0	---	0.00	30.141 
00:50	64.5	64.5	64.5	88	60.9	0	0	---	0.00	30.141 
00:55	64.3	64.3	64.3	88	60.7	0	0	---	0.01	30.141 
01:00	64.3	64.3	64.3	89	61.0	0	0	---	0.00	30.140 
01:05	64.2	64.2	64.2	89	60.9	0	0	---	0.00	30.140 
01:10	64.0	64.0	64.0	89	60.7	0	0	---	0.00	30.140 
01:15	64.0	64.0	64.0	90	61.0	0	0	---	0.00	30.143 
01:20	63.9	63.9	63.9	90	60.9	0	0	---	0.00	30.143 
01:25	63.9	63.9	63.9	91	61.2	0	1	225	0.00	30.143 
01:30	63.9	63.9	63.9	92	61.5	0	1	225	0.00	30.164 
01:35	63.9	63.9	63.9	92	61.5	0	3	248	0.00	30.164 
01:40	63.7	63.7	63.7	92	61.3	0	3	248	0.00	30.164 
01:45	63.7	63.7	63.7	92	61.3	0	1	248	0.00	30.160 
01:50	63.5	63.5	63.5	92	61.1	0	1	248	0.00	30.160 
01:55	63.5	63.5	63.5	92	61.1	0	1	248	0.00	30.160 
02:00	63.5	63.5	63.5	92	61.1	0	0	---	0.00	30.150 
02:05	63.5	63.5	63.5	92	61.1	0	0	---	0.00	30.150 
02:10	63.4	63.4	63.4	92	61.0	0	1	248	0.00	30.150 
02:15	63.4	63.4	63.4	92	61.0	0	0	---	0.00	30.138 
02:20	63.4	63.4	63.4	92	61.0	0	1	248	0.01	30.138 
02:25	63.4	63.4	63.4	92	61.0	0	1	248	0.00	30.138 
02:30	63.4	63.4	63.4	93	61.3	0	3	248	0.00	30.128 
02:35	63.4	63.4	63.4	93	61.3	0	1	248	0.00	30.128 
02:40	63.4	63.4	63.4	93	61.3	0	2	248	0.00	30.128 
02:45	63.4	63.4	63.4	93	61.3	0	1	248	0.00	30.121 
02:50	63.4	63.4	63.4	93	61.3	0	3	292	0.00	30.121 
02:55	63.4	63.4	63.4	92	61.0	0	2	292	0.00	30.121 
03:00	63.5	63.5	63.5	92	61.1	0	2	292	0.00	30.111 
03:05	63.5	63.5	63.5	92	61.1	1	3	248	0.00	30.111 
03:10	63.7	63.7	63.7	92	61.3	0	2	248	0.00	30.111 
03:15	63.7	63.7	63.7	92	61.3	1	2	248	0.00	30.108 
03:20	63.9	63.9	63.9	92	61.5	1	3	248	0.00	30.108 
03:25	63.9	63.9	63.9	91	61.2	2	7	248	0.00	30.108 
03:30	64.0	64.0	64.0	90	61.0	2	5	270	0.00	30.102 
03:35	64.2	64.2	64.2	90	61.2	1	5	248	0.00	30.102 
03:40	64.2	64.2	64.2	90	61.2	0	2	270	0.00	30.102 
03:45	64.2	64.2	64.2	89	60.9	1	4	270	0.00	30.102 
03:50	64.2	64.2	64.2	89	60.9	1	4	292	0.00	30.102 
03:55	64.3	64.3	64.3	89	61.0	1	4	248	0.00	30.102 
04:00	64.3	64.3	64.3	88	60.7	1	3	248	0.00	30.106 
04:05	64.3	64.3	64.3	88	60.7	0	2	248	0.00	30.106 
04:10	64.3	64.3	64.3	88	60.7	0	2	248	0.00	30.106 
04:15	64.3	64.3	64.3	88	60.7	0	1	248	0.00	30.103 
04:20	64.2	64.2	64.2	88	60.6	0	3	248	0.00	30.103 
04:25	64.2	64.2	64.2	88	60.6	0	3	248	0.00	30.103 
04:30	64.2	64.2	64.2	88	60.6	1	5	270	0.00	30.112 
04:35	64.2	64.2	64.2	88	60.6	1	3	248	0.00	30.112 
04:40	64.2	64.2	64.2	88	60.6	1	5	248	0.00	30.112 
04:45	64.2	64.2	64.2	87	60.2	1	5	248	0.00	30.115 
04:50	64.2	64.2	64.2	87	60.2	1	4	248	0.00	30.115 
04:55	64.3	64.3	64.3	86	60.0	2	5	248	0.00	30.115 
05:00	64.3	64.3	64.3	86	60.0	1	3	248	0.00	30.118 
05:05	64.3	64.3	64.3	86	60.0	1	2	248	0.00	30.118 
05:10	64.2	64.2	64.2	86	59.9	1	4	248	0.00	30.118 
05:15	64.2	64.2	64.2	86	59.9	2	4	248	0.00	30.124 
05:20	64.2	64.2	64.2	86	59.9	2	6	248	0.00	30.124 
05:25	64.2	64.2	64.2	86	59.9	2	5	248	0.00	30.124 
05:30	64.2	64.2	64.2	86	59.9	1	3	248	0.00	30.135 
05:35	64.0	64.0	64.0	86	59.7	2	3	248	0.00	30.135 
05:40	64.0	64.0	64.0	87	60.0	2	5	248	0.00	30.135 
05:45	63.9	63.9	63.9	88	60.3	2	6	248	0.00	30.145 
05:50	63.5	63.5	63.5	89	60.2	3	6	248	0.01	30.145 
05:55	63.2	63.2	63.2	90	60.2	2	5	248	0.01	30.145 
06:00	63.1	63.1	63.1	90	60.1	2	6	270	0.01	30.155 
06:05	62.7	62.7	62.7	91	60.0	1	3	248	0.01	30.155 
06:10	62.6	62.6	62.6	92	60.2	1	2	248	0.01	30.155 
06:15	62.4	62.4	62.4	92	60.0	1	4	248	0.00	30.159 
06:20	62.3	62.3	62.3	93	60.2	1	4	248	0.01	30.159 
06:25	62.1	62.1	62.1	93	60.0	1	4	248	0.01	30.159 
06:30	62.0	62.0	62.0	93	59.9	1	2	248	0.01	30.173 
06:35	62.0	62.0	62.0	94	60.2	1	2	248	0.00	30.173 
06:40	62.0	62.0	62.0	94	60.2	1	3	248	0.00	30.173 
06:45	61.8	61.8	61.8	94	60.1	1	3	248	0.01	30.176 
06:50	61.8	61.8	61.8	94	60.1	1	3	292	0.00	30.176 
06:55	61.6	61.6	61.6	94	59.9	1	3	292	0.00	30.176 
07:00	61.6	61.6	61.6	94	59.9	0	2	248	0.00	30.183 
07:05	61.6	61.6	61.6	95	60.2	0	1	248	0.01	30.183 
07:10	61.6	61.6	61.6	95	60.2	0	2	248	0.00	30.183 
07:15	61.5	61.5	61.5	95	60.1	0	1	248	0.01	30.190 
07:20	61.5	61.5	61.5	95	60.1	0	1	248	0.00	30.190 
07:25	61.5	61.5	61.5	95	60.1	0	1	248	0.01	30.190 
07:30	61.3	61.3	61.3	95	59.9	0	0	---	0.01	30.193 
07:35	61.3	61.3	61.3	95	59.9	0	1	248	0.00	30.193 
07:40	61.3	61.3	61.3	95	59.9	0	0	---	0.00	30.193 
07:45	61.2	61.2	61.2	95	59.8	0	0	---	0.00	30.198 
07:50	61.2	61.2	61.2	95	59.8	0	0	---	0.01	30.198 
07:55	61.2	61.2	61.2	95	59.8	0	0	---	0.00	30.198 
08:00	61.2	61.2	61.2	95	59.8	0	0	---	0.00	30.209 
08:05	61.3	61.3	61.3	95	59.9	0	0	---	0.00	30.209 
08:10	61.3	61.3	61.3	95	59.9	0	1	248	0.00	30.209 
08:15	61.3	61.3	61.3	96	60.1	0	0	---	0.00	30.231 
08:20	61.3	61.3	61.3	96	60.1	0	1	248	0.00	30.231 
08:25	61.3	61.3	61.3	96	60.1	0	0	---	0.00	30.231 
08:30	61.3	61.3	61.3	96	60.1	0	1	248	0.01	30.229 
08:35	61.2	61.2	61.2	96	60.0	0	0	---	0.00	30.229 
08:40	61.3	61.3	61.3	96	60.1	0	0	---	0.00	30.229 
08:45	61.3	61.3	61.3	96	60.1	0	1	248	0.00	30.231 
08:50	61.2	61.2	61.2	96	60.0	0	1	248	0.00	30.231 
08:55	61.0	61.0	61.0	96	59.8	0	1	248	0.00	30.231 
09:00	60.9	60.9	60.9	96	59.7	0	0	---	0.00	30.227 
09:05	60.9	60.9	60.9	96	59.7	0	0	---	0.00	30.227 
09:10	60.9	60.9	60.9	96	59.7	0	0	---	0.00	30.227 
09:15	60.9	60.9	60.9	96	59.7	0	0	---	0.00	30.233 
09:20	60.9	60.9	60.9	96	59.7	0	1	248	0.00	30.233 
09:25	60.9	60.9	60.9	96	59.7	0	0	---	0.00	30.233 
09:30	60.9	60.9	60.9	96	59.7	0	1	248	0.00	30.250 
09:35	60.9	60.9	60.9	96	59.7	0	0	---	0.00	30.250 
09:40	60.9	60.9	60.9	96	59.7	0	0	---	0.00	30.250 
09:45	60.9	60.9	60.9	96	59.7	0	1	248	0.00	30.248 
09:50	60.7	60.7	60.7	96	59.6	0	0	---	0.00	30.248 
09:55	60.7	60.7	60.7	96	59.6	0	1	248	0.00	30.248 
10:00	60.9	60.9	60.9	96	59.7	0	1	248	0.00	30.249 
10:05	60.9	60.9	60.9	96	59.7	0	0	---	0.00	30.249 
10:10	61.0	61.0	61.0	96	59.8	0	1	248	0.00	30.249 
10:15	61.0	61.0	61.0	96	59.8	0	2	248	0.00	30.262 
10:20	61.0	61.0	61.0	96	59.8	0	0	---	0.00	30.262 
10:25	61.2	61.2	61.2	96	60.0	0	1	248	0.00	30.262 
10:30	61.3	61.3	61.3	96	60.1	0	0	---	0.00	30.265 
10:35	61.5	61.5	61.5	96	60.3	0	0	---	0.00	30.265 
10:40	61.6	61.6	61.6	96	60.4	0	1	248	0.00	30.265 
10:45	61.8	61.8	61.8	96	60.6	0	1	248	0.00	30.267 
10:50	61.8	61.8	61.8	96	60.6	0	1	248	0.00	30.267 
10:55	61.8	61.8	61.8	95	60.3	0	1	248	0.00	30.267 
11:00	61.8	61.8	61.8	95	60.3	0	1	248	0.00	30.276 
11:05	62.0	62.0	62.0	95	60.5	0	1	248	0.00	30.276 
11:10	62.1	62.1	62.1	95	60.6	0	1	248	0.00	30.276 
11:15	60.9	60.9	60.9	94	59.2	1	4	338	0.00	30.288 
11:20	59.0	59.0	59.0	92	56.7	1	4	338	0.00	30.288 
11:25	58.4	58.4	58.4	92	56.1	1	4	22	0.00	30.288 
11:30	57.8	57.8	57.8	92	55.5	1	7	45	0.00	30.300 
11:35	57.3	57.3	57.3	92	55.0	2	5	45	0.00	30.300 
11:40	56.9	56.9	56.9	92	54.6	3	9	45	0.00	30.300 
11:45	56.5	56.5	56.5	92	54.2	2	9	68	0.00	30.312 
11:50	56.2	56.2	56.2	92	53.9	2	9	112	0.00	30.312 
11:55	55.7	55.7	55.7	92	53.4	1	4	45	0.00	30.312 
12:00	55.4	55.4	55.4	92	53.1	1	4	90	0.00	30.321 
12:05	55.0	55.0	55.0	91	52.4	1	4	45	0.00	30.321 
12:10	54.8	54.8	54.8	92	52.5	1	4	112	0.00	30.321 
12:15	54.7	54.7	54.7	92	52.4	1	6	68	0.00	30.329 
12:20	54.4	54.4	54.4	91	51.8	2	6	112	0.00	30.329 
12:25	53.9	53.9	53.9	91	51.3	1	5	90	0.00	30.329 
12:30	53.6	53.6	53.6	91	51.0	1	4	45	0.00	30.337 
12:35	53.6	53.6	53.6	91	51.0	1	4	90	0.00	30.337 
12:40	53.3	53.3	53.3	90	50.4	2	7	45	0.00	30.337 
12:45	53.1	53.1	53.1	90	50.2	2	9	90	0.00	30.347 
12:50	52.9	52.9	52.9	90	50.0	3	10	112	0.00	30.347 
12:55	52.8	52.8	52.8	90	49.9	2	4	45	0.00	30.347 
13:00	52.8	52.8	52.8	90	49.9	1	4	68	0.00	30.351 
13:05	52.8	52.8	52.8	90	49.9	2	10	90	0.00	30.351 
13:10	52.6	52.6	52.6	90	49.7	2	5	45	0.00	30.351 
13:15	52.6	52.6	52.6	90	49.7	0	3	45	0.00	30.357 
13:20	52.5	52.5	52.5	90	49.7	2	6	112	0.00	30.357 
13:25	52.5	52.5	52.5	90	49.7	1	4	135	0.00	30.357 
13:30	52.5	52.5	52.5	90	49.7	1	3	68	0.00	30.362 
13:35	52.5	52.5	52.5	90	49.7	1	4	45	0.00	30.362 
13:40	52.6	52.6	52.6	90	49.7	1	6	22	0.00	30.362 
13:45	52.5	52.5	52.5	89	49.4	3	9	112	0.00	30.367 
13:50	52.5	52.5	52.5	89	49.4	2	5	112	0.00	30.367 
13:55	52.5	52.5	52.5	89	49.4	1	6	45	0.00	30.367 
14:00	52.5	52.5	52.5	89	49.4	1	4	90	0.00	30.367 
14:05	52.6	52.6	52.6	89	49.4	1	4	90	0.00	30.367 
14:10	52.5	52.5	52.5	89	49.4	1	5	22	0.00	30.367 
14:15	52.3	52.3	52.3	88	48.9	2	6	112	0.00	30.368 
14:20	52.5	52.5	52.5	89	49.4	1	5	45	0.00	30.368 
14:25	52.5	52.5	52.5	89	49.4	1	3	90	0.00	30.368 
14:30	52.6	52.6	52.6	88	49.1	1	6	112	0.00	30.368 
14:35	52.6	52.6	52.6	88	49.1	2	9	112	0.00	30.368 
14:40	52.8	52.8	52.8	88	49.3	3	11	90	0.00	30.368 
14:45	52.6	52.6	52.6	87	48.8	5	13	112	0.00	30.372 
14:50	52.6	52.6	52.6	87	48.8	2	13	90	0.00	30.372 
14:55	52.6	52.6	52.6	86	48.5	5	11	112	0.00	30.372 
15:00	52.8	52.8	52.8	86	48.7	3	9	90	0.00	30.372 
15:05	53.1	53.1	53.1	86	49.0	2	5	112	0.00	30.372 
15:10	53.2	53.2	53.2	85	48.8	2	6	112	0.00	30.372 
15:15	53.5	53.5	53.5	86	49.4	2	6	112	0.00	30.369 
15:20	53.6	53.6	53.6	85	49.2	2	6	112	0.00	30.369 
15:25	53.8	53.8	53.8	84	49.1	2	6	22	0.00	30.369 
15:30	53.9	53.9	53.9	84	49.2	2	5	90	0.00	30.367 
15:35	53.9	53.9	53.9	84	49.2	2	6	90	0.00	30.367 
15:40	53.9	53.9	53.9	84	49.2	3	10	90	0.00	30.367 
15:45	54.2	54.2	54.2	84	49.5	3	9	90	0.00	30.363 
15:50	54.4	54.4	54.4	83	49.3	3	7	112	0.00	30.363 
15:55	54.2	54.2	54.2	81	48.5	4	9	90	0.00	30.363 
16:00	54.2	54.2	54.2	83	49.1	2	6	112	0.00	30.366 
16:05	54.2	54.2	54.2	82	48.8	2	7	90	0.00	30.366 
16:10	54.5	54.5	54.5	82	49.1	2	7	112	0.00	30.366 
16:15	54.5	54.5	54.5	82	49.1	3	7	112	0.00	30.363 
16:20	54.7	54.7	54.7	83	49.6	2	4	90	0.00	30.363 
16:25	54.8	54.8	54.8	82	49.4	3	6	90	0.00	30.363 
16:30	54.8	54.8	54.8	81	49.1	3	9	90	0.00	30.366 
16:35	55.0	55.0	55.0	82	49.6	1	6	112	0.00	30.366 
16:40	54.8	54.8	54.8	81	49.1	3	7	90	0.00	30.366 
16:45	54.7	54.7	54.7	81	49.0	4	9	112	0.00	30.368 
16:50	54.7	54.7	54.7	81	49.0	4	7	112	0.00	30.368 
16:55	54.7	54.7	54.7	81	49.0	4	10	90	0.00	30.368 
17:00	54.7	54.7	54.7	82	49.3	3	7	112	0.00	30.368 
17:05	54.7	54.7	54.7	83	49.6	1	5	112	0.00	30.368 
17:10	54.8	54.8	54.8	83	49.7	2	7	112	0.00	30.368 
17:15	54.8	54.8	54.8	81	49.1	3	9	90	0.00	30.369 
17:20	54.7	54.7	54.7	81	49.0	2	8	112	0.00	30.369 
17:25	54.7	54.7	54.7	82	49.3	3	10	112	0.00	30.369 
17:30	54.7	54.7	54.7	82	49.3	2	8	90	0.00	30.371 
17:35	54.4	54.4	54.4	82	49.0	2	7	112	0.00	30.371 
17:40	54.1	54.1	54.1	83	49.1	2	7	112	0.00	30.371 
17:45	53.8	53.8	53.8	83	48.8	1	5	112	0.00	30.383 
17:50	53.3	53.3	53.3	84	48.6	2	4	45	0.00	30.383 
17:55	52.9	52.9	52.9	84	48.2	1	5	112	0.00	30.383 
18:00	52.6	52.6	52.6	84	47.9	1	4	45	0.00	30.390 
18:05	52.3	52.3	52.3	85	47.9	2	9	90	0.00	30.390 
18:10	52.2	52.2	52.2	84	47.5	2	6	112	0.00	30.390 
18:15	52.0	52.0	52.0	85	47.6	1	6	45	0.00	30.395 
18:20	52.0	52.0	52.0	85	47.6	1	5	68	0.00	30.395 
18:25	51.9	51.9	51.9	84	47.2	2	6	112	0.00	30.395 
18:30	51.7	51.7	51.7	84	47.0	2	7	112	0.00	30.398 
18:35	51.4	51.4	51.4	85	47.0	2	6	45	0.00	30.398 
18:40	51.4	51.4	51.4	85	47.0	3	7	112	0.00	30.398 
18:45	51.3	51.3	51.3	85	46.9	1	6	45	0.00	30.405 
18:50	51.3	51.3	51.3	86	47.3	1	3	112	0.00	30.405 
18:55	51.3	51.3	51.3	86	47.3	1	2	112	0.00	30.405 
19:00	51.3	51.3	51.3	85	46.9	1	6	68	0.00	30.404 
19:05	51.3	51.3	51.3	85	46.9	2	5	112	0.00	30.404 
19:10	51.3	51.3	51.3	85	46.9	1	5	112	0.00	30.404 
19:15	51.1	51.1	51.1	85	46.7	1	4	68	0.00	30.414 
19:20	51.1	51.1	51.1	84	46.4	2	8	90	0.00	30.414 
19:25	51.0	51.0	51.0	84	46.3	2	9	112	0.00	30.414 
19:30	51.0	51.0	51.0	84	46.3	2	7	90	0.00	30.406 
19:35	51.0	51.0	51.0	84	46.3	2	6	90	0.00	30.406 
19:40	50.8	50.8	50.8	84	46.1	3	11	90	0.01	30.406 
19:45	50.7	50.7	50.7	86	46.7	2	6	90	0.00	30.405 
19:50	50.4	50.4	50.4	88	47.0	3	7	112	0.01	30.405 
19:55	50.2	50.2	50.2	88	46.8	3	7	90	0.00	30.405 
20:00	49.9	49.9	49.9	89	46.8	2	8	90	0.01	30.407 
20:05	49.8	49.8	49.8	90	47.0	2	6	90	0.00	30.407 
20:10	49.8	49.8	49.8	90	47.0	2	5	90	0.00	30.407 
20:15	49.6	49.6	49.6	90	46.8	2	5	112	0.01	30.409 
20:20	49.5	49.5	49.5	91	47.0	1	4	112	0.00	30.409 
20:25	49.5	49.5	49.5	91	47.0	2	7	112	0.00	30.409 
20:30	49.5	49.5	49.5	91	47.0	2	4	112	0.00	30.408 
20:35	49.5	49.5	49.5	92	47.3	2	6	112	0.00	30.408 
20:40	49.5	49.5	49.5	92	47.3	2	7	90	0.00	30.408 
20:45	49.4	49.4	49.4	92	47.2	1	5	22	0.00	30.410 
20:50	49.4	49.4	49.4	92	47.2	1	4	90	0.00	30.410 
20:55	49.4	49.4	49.4	92	47.2	1	5	90	0.00	30.410 
21:00	49.4	49.4	49.4	92	47.2	1	4	45	0.00	30.419 
21:05	49.4	49.4	49.4	92	47.2	1	4	112	0.00	30.419 
21:10	49.2	49.2	49.2	92	47.0	1	4	112	0.00	30.419 
21:15	49.2	49.2	49.2	92	47.0	1	5	112	0.00	30.419 
21:20	49.2	49.2	49.2	92	47.0	1	4	112	0.00	30.419 
21:25	49.2	49.2	49.2	91	46.7	2	7	90	0.00	30.419 
21:30	49.2	49.2	49.2	91	46.7	2	6	112	0.00	30.418 
21:35	49.2	49.2	49.2	91	46.7	2	5	90	0.00	30.418 
21:40	49.1	49.1	49.1	91	46.6	2	4	90	0.00	30.418 
21:45	49.2	49.2	49.2	91	46.7	1	3	112	0.00	30.423 
21:50	49.2	49.2	49.2	91	46.7	1	4	112	0.00	30.423 
21:55	49.1	49.1	49.1	91	46.6	1	3	90	0.00	30.423 
22:00	49.2	49.2	49.2	91	46.7	1	4	90	0.00	30.426 
22:05	49.2	49.2	49.2	91	46.7	1	3	112	0.00	30.426 
22:10	49.1	49.1	49.1	91	46.6	2	5	112	0.00	30.426 
22:15	49.1	49.1	49.1	91	46.6	1	4	112	0.00	30.422 
22:20	48.9	48.9	48.9	90	46.1	2	4	90	0.00	30.422 
22:25	48.9	48.9	48.9	89	45.8	2	5	90	0.00	30.422 
22:30	48.8	48.8	48.8	88	45.4	3	7	112	0.01	30.418 
22:35	48.8	48.8	48.8	88	45.4	3	6	90	0.00	30.418 
22:40	48.6	48.6	48.6	88	45.2	3	5	112	0.00	30.418 
22:45	48.5	48.5	48.5	88	45.1	3	10	112	0.00	30.408 
22:50	48.3	48.3	48.3	88	44.9	3	6	90	0.00	30.408 
22:55	48.2	48.2	48.2	88	44.8	3	7	112	0.00	30.408 
23:00	48.2	48.2	48.2	88	44.8	2	7	90	0.00	30.410 
23:05	48.0	48.0	48.0	88	44.6	2	3	90	0.00	30.410 
23:10	47.9	47.9	47.9	88	44.5	3	7	112	0.00	30.410 
23:15	47.9	47.9	47.9	88	44.5	3	7	112	0.00	30.419 
23:20	47.9	47.9	47.9	88	44.5	3	6	112	0.00	30.419 
23:25	47.9	47.9	47.9	88	44.5	3	4	112	0.00	30.419 
23:30	47.7	47.7	47.7	89	44.6	2	6	112	0.00	30.417 
23:35	47.7	47.7	47.7	89	44.6	3	9	112	0.00	30.417 
23:40	47.6	47.6	47.6	89	44.5	2	7	112	0.00	30.417 
23:45	47.6	47.6	47.6	89	44.5	2	7	90	0.00	30.426 
23:50	47.4	47.4	47.4	89	44.3	3	9	90	0.00	30.426 
23:55	47.4	47.4	47.4	88	44.0	3	6	90	0.00	30.426 

CoCoRaHS
IN-AL-39
A2 Web Hosting
Creative Commons License
GoDaddy
search engine by freefind advanced

loaded 2018-11-16 10:38:11 • last modified 2010-11-18 10:43:29
Privacy PolicyDisclaimer
• wx.awcolley.com is powered by PmWiki v.2002016 •
• all content (unless otherwise noted) © 2018 A W Colley